Time;durP1;ratioP1;P1;durP2;ratioP2;P2;SDS_P1;SDS_P2;PMS_P1;PMS_P2;Temp;Humidity;BMP_temperature;BMP_pressure;BME280_temperature;BME280_humidity;BME280_pressure;Samples;Min_cycle;Max_cycle;Signal;HPM_P1;HPM_P2
2021/04/08 00:00:36;;;;;;;14.43;7.37;;;;;;;-1.04;86.95;98649.73;1812955;79;21077;-71
2021/04/08 00:03:04;;;;;;;14.53;7.78;;;;;;;-1.05;86.68;98652.69;1812999;79;20934;-71
2021/04/08 00:05:31;;;;;;;18.15;8.30;;;;;;;-1.03;86.66;98655.41;1812976;79;20927;-71
2021/04/08 00:08:00;;;;;;;17.87;7.53;;;;;;;-1.01;86.48;98657.83;1813069;79;21020;-71
2021/04/08 00:10:28;;;;;;;13.80;7.20;;;;;;;-0.98;86.25;98665.39;1812998;79;22035;-71
2021/04/08 00:12:55;;;;;;;14.58;7.50;;;;;;;-0.95;86.08;98662.71;1812964;79;20942;-71
2021/04/08 00:15:23;;;;;;;11.97;7.03;;;;;;;-0.95;86.05;98662.17;1812958;79;21488;-71
2021/04/08 00:17:50;;;;;;;15.55;8.35;;;;;;;-0.96;85.85;98670.52;1812998;79;21073;-71
2021/04/08 00:20:20;;;;;;;17.00;8.75;;;;;;;-0.98;85.83;98680.20;1826518;77;21112;-70
2021/04/08 00:22:48;;;;;;;18.82;8.68;;;;;;;-0.98;85.77;98687.48;1819152;78;22265;-70
2021/04/08 00:25:15;;;;;;;16.80;8.15;;;;;;;-0.97;85.76;98689.10;1819086;78;20953;-72
2021/04/08 00:27:43;;;;;;;17.27;7.87;;;;;;;-0.98;85.56;98690.98;1819035;78;20930;-72
2021/04/08 00:30:12;;;;;;;14.55;7.33;;;;;;;-0.99;85.53;98694.75;1818796;78;21021;-73
2021/04/08 00:32:40;;;;;;;16.80;8.65;;;;;;;-1.02;85.73;98700.66;1819104;78;21579;-73
2021/04/08 00:35:08;;;;;;;14.07;8.35;;;;;;;-1.03;85.68;98704.42;1819034;78;21228;-74
2021/04/08 00:37:36;;;;;;;14.73;8.48;;;;;;;-1.07;85.61;98705.48;1818971;78;20937;-74
2021/04/08 00:40:12;;;;;;;18.25;8.93;;;;;;;-1.07;85.59;98712.22;1819002;78;20931;-73
2021/04/08 00:42:42;;;;;;;20.52;8.03;;;;;;;-1.08;85.91;98709.78;1830357;77;21118;-72
2021/04/08 00:45:10;;;;;;;16.48;7.92;;;;;;;-1.10;85.73;98724.86;1823060;77;20958;-73
2021/04/08 00:47:38;;;;;;;14.73;8.43;;;;;;;-1.12;85.65;98712.72;1822699;77;21230;-72
2021/04/08 00:50:07;;;;;;;15.05;8.33;;;;;;;-1.12;85.81;98720.80;1852347;77;21029;-73
2021/04/08 00:52:36;;;;;;;16.70;9.43;;;;;;;-1.14;85.81;98725.64;1852461;77;20930;-70
2021/04/08 00:55:06;;;;;;;16.60;8.45;;;;;;;-1.15;85.76;98721.31;1824737;77;21464;-71
2021/04/08 00:57:34;;;;;;;18.75;8.75;;;;;;;-1.20;85.84;98720.78;1852477;77;20903;-72
2021/04/08 01:00:05;;;;;;;20.23;9.35;;;;;;;-1.20;86.40;98724.82;1852512;77;22187;-73
2021/04/08 01:02:33;;;;;;;21.17;9.58;;;;;;;-1.22;86.31;98726.96;1852374;77;20954;-72
2021/04/08 01:05:00;;;;;;;14.83;8.78;;;;;;;-1.24;86.32;98741.75;1820950;77;20970;-73
2021/04/08 01:07:32;;;;;;;19.90;10.10;;;;;;;-1.27;86.38;98740.92;1852346;77;20957;-73
2021/04/08 01:10:00;;;;;;;17.12;9.78;;;;;;;-1.29;86.35;98735.80;1852428;77;20910;-73
2021/04/08 01:12:27;;;;;;;18.37;9.73;;;;;;;-1.30;86.31;98742.78;1852540;77;21583;-71
2021/04/08 01:14:55;;;;;;;22.62;9.58;;;;;;;-1.32;86.31;98736.31;1852397;77;20930;-72
2021/04/08 01:17:47;;;;;;;16.00;8.83;;;;;;;-1.32;86.30;98740.35;1852517;77;20922;-71
2021/04/08 01:20:41;;;;;;;16.05;9.13;;;;;;;-1.32;86.30;98742.23;1852449;77;21124;-71
2021/04/08 01:23:43;;;;;;;;;;;;;;;-1.35;86.31;98748.41;1855221;77;20926;-72
2021/04/08 01:26:53;;;;;;;15.85;8.98;;;;;;;-1.38;86.53;98755.66;1852566;77;21625;-72
2021/04/08 01:29:35;;;;;;;18.95;8.73;;;;;;;-1.38;86.66;98765.08;1852438;77;21532;-71
2021/04/08 01:32:05;;;;;;;18.35;9.73;;;;;;;-1.41;86.64;98764.78;1849680;77;20943;-72
2021/04/08 01:34:33;;;;;;;17.98;10.18;;;;;;;-1.42;87.33;98773.39;1849221;77;21049;-72
2021/04/08 01:37:05;;;;;;;15.70;8.65;;;;;;;-1.43;87.09;98773.64;1849232;77;20958;-72
2021/04/08 01:39:33;;;;;;;18.52;10.10;;;;;;;-1.45;87.03;98779.28;1849452;77;22264;-72
2021/04/08 01:42:00;;;;;;;18.20;10.08;;;;;;;-1.47;87.11;98777.92;1849113;77;20985;-73
2021/04/08 01:44:28;;;;;;;21.57;9.98;;;;;;;-1.49;87.37;98781.39;1849132;77;21584;-73
2021/04/08 01:47:01;;;;;;;21.82;10.90;;;;;;;-1.50;87.32;98783.27;1849119;77;21036;-74
2021/04/08 01:49:31;;;;;;;19.90;10.20;;;;;;;-1.50;87.39;98791.89;1819340;77;21040;-72
2021/04/08 01:51:59;;;;;;;21.17;10.20;;;;;;;-1.52;87.42;98792.14;1849346;77;21351;-72
2021/04/08 01:54:28;;;;;;;17.42;10.28;;;;;;;-1.53;87.46;98792.39;1819262;77;21175;-72
2021/04/08 01:56:59;;;;;;;19.52;10.18;;;;;;;-1.56;87.40;98795.06;1849367;77;20930;-72
2021/04/08 01:59:28;;;;;;;;;;;;;;;-1.56;87.57;98803.67;1852149;77;21139;-72
2021/04/08 02:01:59;;;;;;;22.10;10.13;;;;;;;-1.55;87.69;98810.68;1849482;77;20485;-72
2021/04/08 02:04:28;;;;;;;20.72;8.48;;;;;;;-1.58;87.58;98809.31;1849336;77;21492;-72
2021/04/08 02:06:59;;;;;;;20.32;9.55;;;;;;;-1.61;87.57;98809.82;1849281;77;20949;-72
2021/04/08 02:09:27;;;;;;;17.42;9.88;;;;;;;-1.63;87.71;98811.14;1849428;77;21592;-72
2021/04/08 02:11:55;;;;;;;17.95;9.93;;;;;;;-1.64;87.67;98811.67;1849305;77;21084;-73
2021/04/08 02:14:23;;;;;;;17.92;9.60;;;;;;;-1.66;87.60;98817.84;1849306;77;20997;-73
2021/04/08 02:16:50;;;;;;;19.67;9.33;;;;;;;-1.69;87.58;98818.34;1849349;77;22316;-73
2021/04/08 02:19:20;;;;;;;18.12;9.68;;;;;;;-1.70;87.65;98821.57;1849245;77;21001;-73
2021/04/08 02:21:47;;;;;;;16.17;9.83;;;;;;;-1.71;87.66;98825.86;1849333;77;20978;-74
2021/04/08 02:24:15;;;;;;;17.20;10.15;;;;;;;-1.73;87.62;98826.64;1849400;77;21045;-73
2021/04/08 02:26:43;;;;;;;20.97;10.20;;;;;;;-1.73;87.88;98830.69;1849306;77;21045;-73
2021/04/08 02:29:11;;;;;;;19.67;10.55;;;;;;;-1.74;87.82;98838.51;1849291;77;21607;-74
2021/04/08 02:31:39;;;;;;;19.42;11.15;;;;;;;-1.76;87.77;98832.03;1850564;77;20990;-74
2021/04/08 02:34:09;;;;;;;21.33;11.43;;;;;;;-1.79;87.73;98835.23;1852540;77;21582;-74
2021/04/08 02:36:37;;;;;;;16.05;9.93;;;;;;;-1.81;87.83;98837.89;1852574;77;20992;-74
2021/04/08 02:39:07;;;;;;;27.15;12.13;;;;;;;-1.82;87.93;98845.68;1852685;77;21460;-72
2021/04/08 02:41:42;;;;;;;21.37;11.00;;;;;;;-1.85;87.96;98844.30;1852664;77;22034;-70
2021/04/08 02:44:10;;;;;;;17.80;10.80;;;;;;;-1.86;88.11;98845.38;1848949;77;20957;-70
2021/04/08 02:46:37;;;;;;;19.10;11.12;;;;;;;-1.86;88.12;98847.25;1852646;77;20970;-70
2021/04/08 02:49:05;;;;;;;25.90;11.28;;;;;;;-1.89;88.19;98848.56;1852628;77;21070;-70
2021/04/08 02:51:52;;;;;;;22.20;11.53;;;;;;;-1.92;88.34;98853.10;1852543;77;21041;-72
2021/04/08 02:54:34;;;;;;;19.17;10.80;;;;;;;-1.92;88.50;98858.48;1852666;77;22654;-72
2021/04/08 02:57:02;;;;;;;22.65;10.95;;;;;;;-1.94;88.48;98856.58;1852756;77;21480;-73
2021/04/08 02:59:47;;;;;;;20.75;11.40;;;;;;;-1.96;88.41;98862.73;1852543;77;20926;-73
2021/04/08 03:02:18;;;;;;;24.02;10.72;;;;;;;-1.96;88.69;98867.30;1852505;77;21120;-72
2021/04/08 03:04:50;;;;;;;21.35;11.08;;;;;;;-1.96;88.73;98870.81;1852623;77;21041;-72
2021/04/08 03:07:20;;;;;;;;;;;;;;;-1.95;88.65;98875.66;1855334;77;21191;-70
2021/04/08 03:09:48;;;;;;;23.52;11.68;;;;;;;-1.96;88.49;98876.72;1852365;77;20135;-70
2021/04/08 03:12:16;;;;;;;26.82;11.90;;;;;;;-2.00;88.47;98884.48;1841794;77;20875;-71
2021/04/08 03:14:47;;;;;;;23.57;12.05;;;;;;;-2.00;88.45;98883.13;1787114;78;21172;-70
2021/04/08 03:17:18;;;;;;;21.68;11.97;;;;;;;-2.01;88.38;98893.61;1809230;79;21033;-71
2021/04/08 03:19:46;;;;;;;26.25;11.48;;;;;;;-2.01;88.58;98894.95;1809958;79;21249;-70
2021/04/08 03:22:14;;;;;;;19.95;11.20;;;;;;;-2.01;88.55;98896.30;1809572;79;21501;-70
2021/04/08 03:24:41;;;;;;;20.82;11.40;;;;;;;-2.01;88.41;98904.37;1809629;79;20967;-71
2021/04/08 03:27:09;;;;;;;24.55;11.73;;;;;;;-2.02;88.38;98914.31;1809580;79;21121;-71
2021/04/08 03:29:39;;;;;;;20.00;11.15;;;;;;;-2.04;88.46;98913.75;1809683;79;21141;-70
2021/04/08 03:32:08;;;;;;;19.25;11.38;;;;;;;-2.04;88.52;98913.75;1808034;79;21175;-70
2021/04/08 03:34:37;;;;;;;18.42;10.82;;;;;;;-2.05;88.54;98912.13;1806752;79;20927;-70
2021/04/08 03:37:04;;;;;;;18.87;9.73;;;;;;;-2.04;88.61;98913.75;1806802;79;20923;-70
2021/04/08 03:39:31;;;;;;;20.60;10.70;;;;;;;-2.03;88.73;98914.56;1806163;79;20945;-71
2021/04/08 03:41:59;;;;;;;20.35;11.35;;;;;;;-2.03;88.70;98918.06;1813095;77;21140;-71
2021/04/08 03:44:26;;;;;;;19.98;10.85;;;;;;;-2.03;88.63;98920.75;1817709;77;21651;-70
2021/04/08 03:46:58;;;;;;;30.27;14.38;;;;;;;-2.02;88.60;98924.25;1799191;79;21504;-71
2021/04/08 03:49:27;;;;;;;;;;;;;;;-2.02;88.63;98925.07;1801832;79;21040;-70
2021/04/08 03:51:54;;;;;;;34.58;17.52;;;;;;;-2.00;88.60;98931.55;1799217;79;20232;-71
2021/04/08 03:54:23;;;;;;;24.52;13.45;;;;;;;-2.00;88.60;98930.20;1756085;79;21563;-73
2021/04/08 03:56:52;;;;;;;23.00;12.58;;;;;;;-2.00;88.61;98935.58;1799248;78;21371;-71
2021/04/08 03:59:19;;;;;;;23.80;12.80;;;;;;;-1.98;88.70;98946.09;1799082;79;21001;-70
2021/04/08 04:01:47;;;;;;;21.77;12.58;;;;;;;-1.97;88.80;98943.16;1799129;79;21187;-70
2021/04/08 04:04:15;;;;;;;22.45;12.80;;;;;;;-1.92;88.95;98949.13;1799079;79;21064;-70
2021/04/08 04:06:44;;;;;;;21.97;12.35;;;;;;;-1.89;88.93;98954.02;1799237;79;21528;-71
2021/04/08 04:09:13;;;;;;;25.85;10.98;;;;;;;-1.85;89.03;98961.88;1799157;79;21362;-72
2021/04/08 04:11:48;;;;;;;21.05;12.28;;;;;;;-1.80;89.21;98972.70;1799034;78;21081;-73
2021/04/08 04:14:21;;;;;;;21.85;12.78;;;;;;;-1.78;89.23;98966.02;1799159;79;20919;-72
2021/04/08 04:16:51;;;;;;;19.85;11.78;;;;;;;-1.74;89.10;98967.14;1799152;79;20978;-72
2021/04/08 04:19:22;;;;;;;23.15;11.85;;;;;;;-1.69;89.06;98978.47;1799273;79;21030;-72
2021/04/08 04:21:51;;;;;;;23.40;12.00;;;;;;;-1.63;89.36;98978.00;1799104;78;21369;-72
2021/04/08 04:24:19;;;;;;;28.12;13.00;;;;;;;-1.59;89.15;98978.60;1799035;79;21559;-71
2021/04/08 04:26:47;;;;;;;20.08;11.28;;;;;;;-1.55;89.03;98982.42;1799075;79;21140;-71
2021/04/08 04:29:15;;;;;;;25.57;11.97;;;;;;;-1.51;88.78;98978.16;1799071;79;20922;-72
2021/04/08 04:31:42;;;;;;;22.77;11.88;;;;;;;-1.46;88.68;98982.80;1801501;79;21129;-74
2021/04/08 04:34:10;;;;;;;19.23;11.48;;;;;;;-1.40;88.68;98986.64;1812964;79;21191;-74
2021/04/08 04:36:37;;;;;;;20.43;10.80;;;;;;;-1.31;88.40;98988.89;1818847;77;21619;-79
2021/04/08 04:39:06;;;;;;;23.47;13.03;;;;;;;-1.23;88.19;98989.27;1823359;77;21025;-78
2021/04/08 04:41:34;;;;;;;19.85;11.35;;;;;;;-1.12;88.08;98992.85;1835254;77;21045;-72
2021/04/08 04:44:01;;;;;;;17.27;10.08;;;;;;;-1.03;87.91;98990.80;1841223;77;21144;-72
2021/04/08 04:46:29;;;;;;;22.25;11.45;;;;;;;-0.92;87.75;98991.72;1843609;77;21128;-76
2021/04/08 04:48:56;;;;;;;19.35;11.15;;;;;;;-0.84;86.97;98993.14;1819995;77;21069;-75
2021/04/08 04:51:24;;;;;;;21.70;11.60;;;;;;;-0.78;86.72;98999.67;1844668;77;20914;-73
2021/04/08 04:53:51;;;;;;;24.52;11.30;;;;;;;-0.73;86.54;98999.72;1852376;77;21097;-72
2021/04/08 04:56:19;;;;;;;21.97;12.18;;;;;;;-0.68;86.91;98999.77;1852441;77;21101;-72
2021/04/08 04:58:46;;;;;;;26.60;13.28;;;;;;;-0.61;86.51;98998.75;1852342;77;21189;-73
2021/04/08 05:01:14;;;;;;;22.52;11.57;;;;;;;-0.58;86.26;99000.40;1852318;77;20923;-69
2021/04/08 05:03:42;;;;;;;22.87;12.07;;;;;;;-0.53;85.97;99004.99;1852411;77;21025;-74
2021/04/08 05:06:10;;;;;;;26.12;13.62;;;;;;;-0.49;85.79;98992.09;1852440;77;20974;-73
2021/04/08 05:08:38;;;;;;;20.97;11.28;;;;;;;-0.43;85.82;98996.98;1852456;77;21116;-70
2021/04/08 05:11:07;;;;;;;26.48;12.78;;;;;;;-0.36;85.32;99001.63;1852364;77;21354;-76
2021/04/08 05:13:35;;;;;;;32.42;15.93;;;;;;;-0.29;85.17;99008.16;1852492;77;21084;-70
2021/04/08 05:16:03;;;;;;;30.90;14.43;;;;;;;-0.23;85.09;99011.17;1852444;77;20922;-70
2021/04/08 05:18:31;;;;;;;21.05;12.88;;;;;;;-0.16;84.98;99010.42;1852407;77;20973;-69
2021/04/08 05:20:59;;;;;;;27.93;12.95;;;;;;;-0.08;84.87;99020.73;1852435;77;20966;-69
2021/04/08 05:23:26;;;;;;;23.30;12.03;;;;;;;-0.03;84.82;99021.59;1852440;77;22159;-69
2021/04/08 05:25:53;;;;;;;46.33;22.35;;;;;;;0.02;84.34;99013.22;1852316;77;20949;-69
2021/04/08 05:28:21;;;;;;;45.30;22.58;;;;;;;0.02;84.05;99007.81;1852529;77;20962;-69
2021/04/08 05:30:48;;;;;;;21.42;12.00;;;;;;;0.00;83.79;99010.24;1852363;77;20946;-69
2021/04/08 05:33:16;;;;;;;19.45;10.40;;;;;;;0.00;84.01;99014.86;1849956;77;21029;-69
2021/04/08 05:35:44;;;;;;;23.92;12.37;;;;;;;0.03;83.76;99013.50;1849165;77;21800;-69
2021/04/08 05:38:12;;;;;;;20.60;11.22;;;;;;;0.07;83.83;99022.70;1848770;77;21710;-70
2021/04/08 05:40:39;;;;;;;20.43;12.00;;;;;;;0.11;84.28;99017.05;1848090;77;21045;-69
2021/04/08 05:43:07;;;;;;;17.82;10.30;;;;;;;0.18;83.97;99023.05;1848050;77;21172;-69
2021/04/08 05:45:35;;;;;;;19.87;11.38;;;;;;;0.23;83.66;99026.59;1848378;77;21069;-68
2021/04/08 05:48:03;;;;;;;20.55;10.98;;;;;;;0.27;83.00;99029.58;1847941;77;21322;-69
2021/04/08 05:50:32;;;;;;;27.30;13.70;;;;;;;0.30;83.45;99027.70;1844935;77;21069;-68
2021/04/08 05:53:00;;;;;;;18.17;10.72;;;;;;;0.35;83.22;99037.72;1840172;77;21399;-69
2021/04/08 05:55:27;;;;;;;18.60;11.18;;;;;;;0.38;82.88;99032.61;1831622;77;21151;-68
2021/04/08 05:57:55;;;;;;;19.42;11.83;;;;;;;0.46;82.84;99041.57;1805938;79;21067;-68
2021/04/08 06:00:24;;;;;;;23.35;13.05;;;;;;;0.51;82.61;99044.30;1806151;79;22555;-68
2021/04/08 06:02:52;;;;;;;22.07;13.10;;;;;;;0.60;82.15;99043.23;1805840;79;21178;-69
2021/04/08 06:05:19;;;;;;;24.07;12.43;;;;;;;0.67;82.48;99039.76;1782372;78;21171;-68
2021/04/08 06:07:48;;;;;;;18.75;11.38;;;;;;;0.75;82.13;99037.09;1836566;77;21152;-68
2021/04/08 06:10:16;;;;;;;21.48;12.53;;;;;;;0.86;82.63;99044.16;1848477;77;21049;-69
2021/04/08 06:12:44;;;;;;;26.12;12.28;;;;;;;0.92;81.66;99048.51;1848424;77;21195;-70
2021/04/08 06:15:14;;;;;;;21.62;12.75;;;;;;;0.95;81.67;99050.69;1848564;77;21135;-68
2021/04/08 06:17:43;;;;;;;22.13;12.20;;;;;;;0.96;81.19;99045.02;1848898;77;21102;-68
2021/04/08 06:20:15;;;;;;;22.80;11.53;;;;;;;0.98;81.09;99053.67;1848596;77;21115;-68
2021/04/08 06:22:44;;;;;;;19.20;11.57;;;;;;;0.99;80.19;99054.48;1844786;77;21064;-71
2021/04/08 06:25:13;;;;;;;19.98;12.30;;;;;;;1.01;81.34;99048.27;1848555;77;21204;-67
2021/04/08 06:27:40;;;;;;;22.82;13.03;;;;;;;1.13;81.86;99050.75;1847579;77;21077;-68
2021/04/08 06:30:10;;;;;;;16.87;10.38;;;;;;;1.28;81.32;99056.16;1848327;77;21163;-68
2021/04/08 06:32:38;;;;;;;18.80;10.05;;;;;;;1.38;79.48;99048.61;1849105;77;21233;-67
2021/04/08 06:35:08;;;;;;;20.20;10.82;;;;;;;1.41;77.83;99056.19;1851646;77;21405;-68
2021/04/08 06:37:36;;;;;;;17.82;11.05;;;;;;;1.41;78.59;99060.25;1824144;77;21544;-67
2021/04/08 06:40:06;;;;;;;16.97;10.23;;;;;;;1.49;80.03;99070.55;1851890;77;21120;-67
2021/04/08 06:42:35;;;;;;;17.42;10.48;;;;;;;1.63;79.40;99077.88;1852024;77;21136;-67
2021/04/08 06:45:05;;;;;;;20.23;10.78;;;;;;;1.80;78.94;99072.72;1852031;77;21132;-67
2021/04/08 06:48:07;;;;;;;17.70;10.00;;;;;;;1.98;78.50;99079.77;1823991;77;21112;-68
2021/04/08 06:50:39;;;;;;;24.30;11.45;;;;;;;2.18;78.03;99084.91;1817354;77;21282;-68
2021/04/08 06:53:07;;;;;;;17.80;10.50;;;;;;;2.37;76.45;99085.95;1852133;77;21543;-68
2021/04/08 06:55:36;;;;;;;19.75;10.00;;;;;;;2.41;74.52;99087.57;1852136;77;20966;-83
2021/04/08 06:58:05;;;;;;;14.35;10.00;;;;;;;2.37;74.78;99092.72;1851268;77;21025;-75
2021/04/08 07:00:34;;;;;;;18.73;11.55;;;;;;;2.33;73.18;99101.13;1852064;77;21159;-79
2021/04/08 07:03:04;;;;;;;16.15;9.58;;;;;;;2.34;73.59;99101.39;1852140;77;21572;-74
2021/04/08 07:05:32;;;;;;;20.45;10.28;;;;;;;2.44;74.51;99106.80;1851810;77;20926;-77
2021/04/08 07:07:59;;;;;;;16.32;9.78;;;;;;;2.48;72.52;99113.30;1851915;77;20978;-76
2021/04/08 07:10:28;;;;;;;18.00;10.90;;;;;;;2.44;72.63;99116.28;1851879;77;21132;-77
2021/04/08 07:12:57;;;;;;;18.70;10.50;;;;;;;2.51;73.32;99120.07;1851928;77;21013;-77
2021/04/08 07:15:25;;;;;;;13.60;9.13;;;;;;;2.66;73.04;99121.40;1852157;77;21806;-78
2021/04/08 07:17:52;;;;;;;16.23;9.63;;;;;;;2.77;72.29;99116.77;1852242;77;21555;-76
2021/04/08 07:20:21;;;;;;;15.43;9.90;;;;;;;2.73;70.67;99127.89;1852116;77;21551;-77
2021/04/08 07:22:48;;;;;;;18.40;9.90;;;;;;;2.64;70.40;99127.64;1851950;77;21120;-77
2021/04/08 07:25:21;;;;;;;14.63;9.68;;;;;;;2.54;70.99;99125.75;1852145;77;21089;-77
2021/04/08 07:27:49;;;;;;;14.78;10.00;;;;;;;2.50;71.13;99136.87;1823686;77;22345;-75
2021/04/08 07:30:18;;;;;;;18.80;10.60;;;;;;;2.54;71.01;99135.23;1852049;77;21021;-76
2021/04/08 07:32:50;;;;;;;15.65;10.38;;;;;;;2.71;71.13;99141.72;1849867;77;21208;-78
2021/04/08 07:35:18;;;;;;;17.00;10.32;;;;;;;3.10;71.65;99146.48;1755748;79;21158;-77
2021/04/08 07:37:58;;;;;;;14.90;9.83;;;;;;;3.60;70.69;99144.06;1781391;78;21063;-76
2021/04/08 07:40:27;;;;;;;15.03;9.18;;;;;;;4.09;69.34;99149.44;1783261;79;22197;-73
2021/04/08 07:42:55;;;;;;;17.80;10.35;;;;;;;4.45;66.39;99149.16;1711132;82;21228;-72
2021/04/08 07:45:29;;;;;;;18.52;9.63;;;;;;;4.37;64.67;99141.08;1743977;81;20973;-75
2021/04/08 07:47:59;;;;;;;16.52;9.68;;;;;;;4.19;65.45;99152.63;1744144;81;21167;-76
2021/04/08 07:50:28;;;;;;;16.30;10.05;;;;;;;4.11;65.37;99154.05;1745742;81;21175;-77
2021/04/08 07:52:57;;;;;;;15.78;8.63;;;;;;;4.11;65.37;99154.05;1747117;81;21394;-76
2021/04/08 07:55:35;;;;;;;20.10;10.72;;;;;;;3.97;65.34;99151.18;1754100;81;21177;-76
2021/04/08 07:58:12;;;;;;;16.55;10.32;;;;;;;3.83;66.04;99154.80;1744879;81;21101;-74
2021/04/08 08:00:47;;;;;;;13.98;9.00;;;;;;;3.83;66.21;99154.80;1742970;81;21120;-73
2021/04/08 08:03:31;;;;;;;14.55;9.23;;;;;;;4.53;65.32;99153.44;1747005;81;21151;-78
2021/04/08 08:06:01;;;;;;;18.62;10.15;;;;;;;4.64;65.14;99159.56;1740131;81;21211;-76
2021/04/08 08:11:21;;;;;;;15.40;9.70;;;;;;;4.84;64.93;99158.56;1864680;76;22696;-75
2021/04/08 08:13:52;;;;;;;16.17;9.60;;;;;;;4.83;63.73;99162.37;1820318;77;21160;-74
2021/04/08 08:16:23;;;;;;;;;;;;;;;4.74;63.60;99169.54;1824690;77;21137;-76
2021/04/08 08:18:51;;;;;;;17.48;9.43;;;;;;;4.87;64.98;99166.96;1825357;77;20541;-74
2021/04/08 08:21:21;;;;;;;17.00;9.73;;;;;;;5.33;62.77;99171.88;1818139;78;20968;-72
2021/04/08 08:23:52;;;;;;;13.58;8.88;;;;;;;5.33;62.77;99171.88;1815724;77;21024;-78
2021/04/08 08:26:33;;;;;;;15.53;8.73;;;;;;;5.20;61.96;99187.58;1820957;77;20914;-78
2021/04/08 08:29:05;;;;;;;;;;;;;;;5.03;61.72;99168.98;1827596;77;21630;-77
2021/04/08 08:31:46;;;;;;;16.87;8.68;;;;;;;4.86;61.35;99174.86;1824414;77;20514;-75
2021/04/08 08:34:23;;;;;;;16.40;8.90;;;;;;;4.81;62.41;99174.09;1829454;77;21446;-77
2021/04/08 08:36:54;;;;;;;12.60;7.87;;;;;;;4.47;59.04;99187.20;1824033;77;21171;-72
2021/04/08 08:39:31;;;;;;;11.60;8.20;;;;;;;4.47;59.04;99187.20;1821702;78;21153;-71
2021/04/08 08:42:02;;;;;;;12.10;7.90;;;;;;;4.48;60.44;99187.46;1820809;78;21355;-71
2021/04/08 08:44:33;;;;;;;13.35;8.23;;;;;;;4.60;59.79;99191.98;1821092;77;21021;-72
2021/04/08 08:47:21;;;;;;;16.67;8.38;;;;;;;4.71;58.65;99192.67;1821463;78;22229;-70
2021/04/08 08:50:04;;;;;;;15.23;8.38;;;;;;;4.92;60.13;99194.11;1820901;77;21179;-72
2021/04/08 08:52:36;;;;;;;13.88;7.55;;;;;;;5.07;58.22;99194.51;1825393;77;21162;-69
2021/04/08 08:55:11;;;;;;;14.60;8.20;;;;;;;5.23;57.71;99193.22;1825954;77;22164;-71
2021/04/08 08:57:40;;;;;;;15.23;8.38;;;;;;;5.29;57.33;99195.34;1849300;77;20946;-73
2021/04/08 09:00:09;;;;;;;15.88;9.43;;;;;;;5.34;57.32;99198.00;1849088;77;21136;-74
2021/04/08 09:02:38;;;;;;;13.98;8.20;;;;;;;5.55;57.83;99200.75;1848225;77;21057;-72
2021/04/08 09:05:14;;;;;;;16.25;8.43;;;;;;;5.68;56.81;99201.14;1848828;77;21005;-72
2021/04/08 09:07:42;;;;;;;13.78;7.60;;;;;;;5.80;56.00;99202.31;1849147;77;21322;-72
2021/04/08 09:10:11;;;;;;;13.03;7.45;;;;;;;5.94;56.92;99202.44;1848866;77;21116;-71
2021/04/08 09:12:39;;;;;;;12.45;7.35;;;;;;;6.09;55.29;99210.41;1847784;77;20994;-69
2021/04/08 09:15:10;;;;;;;13.35;7.15;;;;;;;5.98;53.97;99207.55;1849359;77;21565;-70
2021/04/08 09:17:45;;;;;;;;;;;;;;;5.93;52.40;99202.98;1849627;77;21572;-71
2021/04/08 09:20:16;;;;;;;10.88;6.40;;;;;;;5.90;54.53;99213.11;1849277;77;21365;-69
2021/04/08 09:22:59;;;;;;;12.18;7.45;;;;;;;5.88;53.13;99211.20;1848848;77;20986;-74
2021/04/08 09:25:31;;;;;;;12.80;7.03;;;;;;;5.77;53.37;99208.37;1848218;77;20989;-78
2021/04/08 09:28:04;;;;;;;19.15;7.87;;;;;;;5.81;53.64;99214.02;1848132;77;21490;-69
2021/04/08 09:30:48;;;;;;;16.10;7.17;;;;;;;5.86;54.63;99207.14;1848901;77;20970;-77
2021/04/08 09:33:13;;;;;;;10.05;5.97;;;;;;;5.82;50.76;99209.64;1841410;77;21481;-77
2021/04/08 09:35:43;;;;;;;8.85;5.83;;;;;;;5.71;51.98;99204.09;1847658;77;21172;-75
2021/04/08 09:38:13;;;;;;;10.10;5.78;;;;;;;6.00;51.86;99209.98;1830379;77;21172;-76
2021/04/08 09:40:45;;;;;;;11.50;6.67;;;;;;;6.39;50.46;99205.02;1816646;78;21192;-77
2021/04/08 09:43:17;;;;;;;13.60;6.40;;;;;;;6.80;49.73;99197.55;1818297;77;21599;-75
2021/04/08 09:45:57;;;;;;;16.85;9.25;;;;;;;7.14;47.40;99195.27;1773998;80;21374;-75
2021/04/08 09:48:27;;;;;;;10.85;6.10;;;;;;;7.11;48.40;99199.16;1772747;81;21580;-73
2021/04/08 09:51:00;;;;;;;14.07;7.65;;;;;;;6.84;48.03;99205.39;1774416;80;21548;-75
2021/04/08 09:53:39;;;;;;;14.63;7.12;;;;;;;6.49;49.74;99208.95;1848949;77;20981;-73
2021/04/08 09:56:08;;;;;;;17.35;7.45;;;;;;;6.21;50.09;99209.41;1848963;77;21441;-79
2021/04/08 09:58:37;;;;;;;12.80;8.35;;;;;;;5.99;50.83;99217.91;1848880;77;22221;-75
2021/04/08 10:01:09;;;;;;;10.80;6.92;;;;;;;5.99;52.68;99213.81;1848849;77;21049;-74
2021/04/08 10:03:40;;;;;;;10.75;6.67;;;;;;;6.10;52.23;99208.48;1848723;77;20907;-75
2021/04/08 10:06:22;;;;;;;10.50;6.58;;;;;;;6.50;52.76;99207.04;1848750;77;20910;-79
2021/04/08 10:08:52;;;;;;;15.32;7.05;;;;;;;7.15;51.40;99213.27;1818870;77;21577;-79
2021/04/08 10:11:30;;;;;;;10.32;6.28;;;;;;;7.85;50.76;99201.22;1815180;79;22268;-75
2021/04/08 10:13:59;;;;;;;11.88;6.37;;;;;;;8.40;48.10;99212.03;1815348;79;20951;-74
2021/04/08 10:16:26;;;;;;;11.85;6.53;;;;;;;8.78;47.12;99199.58;1815621;79;20928;-76
2021/04/08 10:19:01;;;;;;;11.80;6.47;;;;;;;8.77;44.42;99219.85;1815361;79;20928;-77
2021/04/08 10:21:30;;;;;;;10.48;5.55;;;;;;;8.32;45.71;99216.83;1815337;79;21148;-74
2021/04/08 10:23:58;;;;;;;9.53;4.10;;;;;;;7.53;47.12;99234.92;1814742;79;21667;-74
2021/04/08 10:26:31;;;;;;;8.90;3.65;;;;;;;6.67;54.99;99254.23;1815545;79;20938;-74
2021/04/08 10:29:01;;;;;;;9.58;5.03;;;;;;;6.02;57.44;99235.84;1815433;79;20942;-74
2021/04/08 10:31:37;;;;;;;10.98;5.37;;;;;;;5.56;59.91;99231.52;1815544;79;21169;-74
2021/04/08 10:34:15;;;;;;;8.28;4.87;;;;;;;5.61;62.01;99232.81;1815594;78;21131;-77
2021/04/08 10:36:55;;;;;;;10.48;5.35;;;;;;;6.09;61.85;99236.84;1815574;78;21206;-78
2021/04/08 10:43:16;;;;;;;9.60;5.28;;;;;;;7.50;52.88;99224.63;1846662;77;21068;-74
2021/04/08 10:45:57;;;;;;;9.98;5.78;;;;;;;8.44;50.39;99222.04;1848962;77;20961;-75
2021/04/08 10:48:27;;;;;;;7.72;4.72;;;;;;;8.62;51.18;99219.45;1849029;77;21092;-76
2021/04/08 10:50:55;;;;;;;8.35;5.03;;;;;;;8.42;47.31;99222.91;1847162;77;22084;-73
2021/04/08 10:53:27;;;;;;;8.03;5.47;;;;;;;7.99;46.86;99236.17;1817666;78;21101;-72
2021/04/08 10:55:55;;;;;;;9.68;5.35;;;;;;;7.47;48.40;99234.80;1784264;79;21044;-76
2021/04/08 10:58:27;;;;;;;11.63;5.72;;;;;;;7.08;49.64;99241.51;1818437;78;21140;-71
2021/04/08 11:00:56;;;;;;;8.35;5.58;;;;;;;6.87;50.90;99243.00;1779719;79;24924;-73
2021/04/08 11:03:24;;;;;;;13.95;6.85;;;;;;;6.62;50.12;99236.84;1742314;82;21345;-72
2021/04/08 11:05:51;;;;;;;8.03;4.92;;;;;;;6.25;50.39;99265.52;1774277;80;21051;-72
2021/04/08 11:08:20;;;;;;;9.38;5.15;;;;;;;5.82;50.58;99270.13;1774317;80;20940;-72
2021/04/08 11:10:48;;;;;;;8.60;4.60;;;;;;;5.39;51.59;99281.52;1774238;80;21071;-72
2021/04/08 11:13:16;;;;;;;6.78;4.22;;;;;;;4.98;54.02;99283.28;1774329;80;21098;-70
2021/04/08 11:15:44;;;;;;;9.85;5.20;;;;;;;4.68;55.16;99274.01;1774240;80;21363;-74
2021/04/08 11:18:19;;;;;;;9.65;4.92;;;;;;;4.60;55.67;99276.81;1774355;80;21153;-75
2021/04/08 11:20:49;;;;;;;9.28;4.80;;;;;;;4.74;57.22;99269.61;1774334;80;21086;-72
2021/04/08 11:23:20;;;;;;;10.82;5.40;;;;;;;5.16;58.02;99274.97;1746311;80;20968;-74
2021/04/08 11:26:08;;;;;;;9.10;4.58;;;;;;;5.72;56.71;99276.53;1774283;80;20889;-71
2021/04/08 11:28:41;;;;;;;7.30;4.00;;;;;;;6.34;55.84;99262.38;1705594;80;21476;-72
2021/04/08 11:31:15;;;;;;;7.40;4.20;;;;;;;7.46;52.13;99256.39;1766816;80;21203;-74
2021/04/08 11:33:44;;;;;;;6.95;4.00;;;;;;;7.46;52.13;99256.39;1821795;77;21044;-74
2021/04/08 11:36:20;;;;;;;6.80;4.50;;;;;;;7.77;50.77;99266.95;1823191;77;21164;-72
2021/04/08 11:38:48;;;;;;;11.50;5.40;;;;;;;7.85;48.59;99266.25;1818006;77;21543;-74
2021/04/08 11:41:16;;;;;;;6.85;4.22;;;;;;;7.65;47.73;99269.37;1823632;77;22408;-74
2021/04/08 11:43:51;;;;;;;4.75;3.55;;;;;;;7.35;49.20;99274.89;1821047;77;21194;-72
2021/04/08 11:49:18;;;;;;;11.33;4.65;;;;;;;6.91;49.66;99272.12;1866818;76;22696;-75
2021/04/08 11:51:48;;;;;;;7.60;4.17;;;;;;;6.80;49.34;99272.58;1825843;77;20980;-70
2021/04/08 11:54:17;;;;;;;7.33;3.83;;;;;;;6.88;46.63;99272.72;1826239;77;21815;-77